ADDS METAR Data INFO
IDs: Format: Raw Decoded Include TAF

Data at: 1052 UTC 19 Oct 2017

KGHW 191034Z AUTO 20003KT 10SM CLR 03/00 A2999 RMK AO2
KGHW 191013Z AUTO 20004KT 10SM CLR 02/00 A3000 RMK AO2
KGHW 190954Z AUTO 21004KT 10SM CLR 03/00 A3000 RMK AO2
KGHW 190933Z AUTO 21005KT 10SM CLR 02/00 A3000 RMK AO2
KGHW 190913Z AUTO 20006KT 10SM CLR 03/00 A3000 RMK AO2
KGHW 190853Z AUTO 21005KT 10SM CLR 03/00 A3000 RMK AO2
KGHW 190833Z AUTO 19005KT 10SM CLR 03/00 A3001 RMK AO2
KGHW 190814Z AUTO 21005KT 10SM CLR 04/00 A3001 RMK AO2
KGHW 190753Z AUTO 20006KT 10SM CLR 04/00 A3001 RMK AO2
KGHW 190734Z AUTO 22005KT 10SM CLR 04/00 A3001 RMK AO2
KGHW 190714Z AUTO 22003KT 10SM CLR 04/01 A3001 RMK AO2
KGHW 190653Z AUTO 24006KT 10SM CLR 06/01 A3001 RMK AO2
KGHW 190634Z AUTO 24007KT 10SM CLR 06/01 A3001 RMK AO2
KGHW 190613Z AUTO 24008KT 10SM CLR 07/01 A3001 RMK AO2
KGHW 190554Z AUTO 25008KT 10SM CLR 06/01 A3001 RMK AO2
KGHW 190534Z AUTO 23007KT 10SM CLR 06/02 A3000 RMK AO2
KGHW 190513Z AUTO 25008KT 10SM CLR 07/01 A3001 RMK AO2
KGHW 190454Z AUTO 24007KT 10SM CLR 07/02 A3001 RMK AO2
KGHW 190433Z AUTO 25009KT 10SM CLR 08/02 A3001 RMK AO2
KGHW 190414Z AUTO 25008KT 10SM CLR 08/02 A3001 RMK AO2
KGHW 190354Z AUTO 26009KT 10SM CLR 08/02 A3000 RMK AO2
KGHW 190333Z AUTO 25009KT 10SM CLR 08/01 A2999 RMK AO2
KGHW 190314Z AUTO 25009KT 10SM CLR 08/01 A2999 RMK AO2
KGHW 190253Z AUTO 24010KT 10SM CLR 06/01 A2999 RMK AO2
KGHW 190234Z AUTO 24006KT 10SM CLR 07/01 A2999 RMK AO2
KGHW 190214Z AUTO 24008KT 10SM CLR 07/00 A3000 RMK AO2
KGHW 190153Z AUTO 26009KT 10SM CLR 08/M01 A2999 RMK AO2
KGHW 190134Z AUTO 25007KT 10SM CLR 08/M02 A2999 RMK AO2
KGHW 190113Z AUTO 26007KT 10SM CLR 08/M02 A2999 RMK AO2
KGHW 190054Z AUTO 25006KT 10SM CLR 08/M01 A2999 RMK AO2
KGHW 190033Z AUTO 26007KT 10SM CLR 09/M01 A2999 RMK AO2
KGHW 190014Z AUTO 26008KT 10SM CLR 11/M02 A2998 RMK AO2
KGHW 182354Z AUTO 26009KT 10SM CLR 11/M02 A2997 RMK AO2
KGHW 182333Z AUTO 27008KT 10SM CLR 11/M02 A2996 RMK AO2
KGHW 182314Z AUTO 26007KT 10SM CLR 12/M01 A2995 RMK AO2
KGHW 182254Z AUTO 26010KT 10SM CLR 13/M02 A2994 RMK AO2
KGHW 182234Z AUTO 26009KT 10SM CLR 13/M02 A2994 RMK AO2
KGHW 182214Z AUTO 26010G16KT 10SM CLR 14/M03 A2994 RMK AO2
KGHW 182153Z AUTO 26012G17KT 10SM CLR 14/M04 A2993 RMK AO2
KGHW 182134Z AUTO 27011G17KT 10SM CLR 14/M04 A2993 RMK AO2
KGHW 182114Z AUTO 27011KT 10SM CLR 15/M04 A2992 RMK AO2
KGHW 182053Z AUTO 28012KT 10SM CLR 15/M04 A2992 RMK AO2
KGHW 182034Z AUTO 28013G20KT 10SM CLR 15/M05 A2992 RMK AO2
KGHW 182013Z AUTO 30019G23KT 10SM CLR 16/M06 A2991 RMK AO2
KGHW 181954Z AUTO 29018G24KT 10SM CLR 16/M06 A2990 RMK AO2
KGHW 181934Z AUTO 29020G25KT 10SM CLR 17/M06 A2989 RMK AO2
KGHW 181913Z AUTO 29016G22KT 10SM CLR 18/M04 A2987 RMK AO2
KGHW 181854Z AUTO 30019G27KT 10SM CLR 18/M04 A2988 RMK AO2
KGHW 181833Z AUTO 31012G20KT 10SM CLR 18/00 A2987 RMK AO2
KGHW 181814Z AUTO 31014G22KT 10SM CLR 18/M01 A2987 RMK AO2
KGHW 181754Z AUTO 31021G28KT 10SM CLR 18/00 A2987 RMK AO2
KGHW 181733Z AUTO 31021G28KT 10SM CLR 17/01 A2987 RMK AO2
KGHW 181714Z AUTO 30023G29KT 10SM CLR 17/02 A2986 RMK AO2
KGHW 181653Z AUTO 31019G27KT 10SM CLR 17/03 A2985 RMK AO2
KGHW 181634Z AUTO 31019G24KT 10SM CLR 16/03 A2984 RMK AO2
KGHW 181614Z AUTO 31013G21KT 10SM CLR 16/04 A2983 RMK AO2
KGHW 181553Z AUTO 31012G17KT 10SM CLR 16/06 A2982 RMK AO2
KGHW 181534Z AUTO 29011G15KT 10SM CLR 15/06 A2980 RMK AO2
KGHW 181514Z AUTO 28009G15KT 10SM CLR 14/07 A2979 RMK AO2
KGHW 181453Z AUTO 27009KT 10SM CLR 13/07 A2978 RMK AO2
KGHW 181434Z AUTO 24007KT 10SM CLR 12/07 A2978 RMK AO2
KGHW 181413Z AUTO 24008KT 10SM CLR 12/07 A2976 RMK AO2
KGHW 181354Z AUTO 23010KT 10SM CLR 12/07 A2975 RMK AO2
KGHW 181333Z AUTO 24010KT 10SM CLR 12/07 A2974 RMK AO2
KGHW 181314Z AUTO 19010KT 10SM CLR 11/06 A2971 RMK AO2
KGHW 181254Z AUTO 19012KT 10SM CLR 11/06 A2971 RMK AO2
KGHW 181233Z AUTO 19010KT 10SM CLR 11/06 A2972 RMK AO2
KGHW 181214Z AUTO 22009KT 10SM CLR 12/06 A2972 RMK AO2
KGHW 181153Z AUTO 19011KT 10SM CLR 12/06 A2971 RMK AO2
KGHW 181134Z AUTO 21008KT 10SM CLR 12/06 A2972 RMK AO2
KGHW 181114Z AUTO 19011KT 10SM CLR 13/06 A2972 RMK AO2
KGHW 181053Z AUTO 19014KT 10SM CLR 13/06 A2973 RMK AO2
KGHW 181034Z AUTO 19014G18KT 10SM CLR 13/07 A2973 RMK AO2
KGHW 181013Z AUTO 18012KT 10SM CLR 12/07 A2974 RMK AO2
KGHW 180954Z AUTO 18011KT 10SM CLR 12/07 A2975 RMK AO2
KGHW 180934Z AUTO 18010KT 10SM CLR 12/07 A2976 RMK AO2
KGHW 180913Z AUTO 18012KT 10SM CLR 12/07 A2976 RMK AO2
KGHW 180854Z AUTO 19010KT 10SM CLR 12/07 A2977 RMK AO2
KGHW 180834Z AUTO 19012KT 10SM CLR 13/07 A2977 RMK AO2
KGHW 180814Z AUTO 19012KT 10SM CLR 13/07 A2977 RMK AO2
KGHW 180754Z AUTO 19014KT 10SM CLR 13/07 A2978 RMK AO2
KGHW 180733Z AUTO 19014G19KT 10SM CLR 13/06 A2978 RMK AO2
KGHW 180714Z AUTO 19011KT 10SM CLR 13/06 A2978 RMK AO2
KGHW 180654Z AUTO 19014G18KT 10SM CLR 13/06 A2979 RMK AO2
KGHW 180633Z AUTO 19014G19KT 10SM CLR 13/06 A2979 RMK AO2
KGHW 180614Z AUTO 19015KT 10SM CLR 14/05 A2980 RMK AO2
KGHW 180553Z AUTO 19014KT 10SM CLR 14/05 A2980 RMK AO2
KGHW 180534Z AUTO 19013KT 10SM CLR 14/04 A2981 RMK AO2
KGHW 180514Z AUTO 20012KT 10SM CLR 14/04 A2981 RMK AO2
KGHW 180453Z AUTO 19011KT 10SM CLR 14/05 A2982 RMK AO2
KGHW 180434Z AUTO 19010KT 10SM CLR 14/05 A2983 RMK AO2
KGHW 180413Z AUTO 19010KT 10SM CLR 14/05 A2984 RMK AO2
KGHW 180354Z AUTO 19011KT 10SM CLR 14/05 A2984 RMK AO2
KGHW 180333Z AUTO 19009KT 10SM CLR 13/05 A2985 RMK AO2
KGHW 180314Z AUTO 19008KT 10SM CLR 11/04 A2985 RMK AO2
KGHW 180254Z AUTO 18008KT 10SM CLR 12/05 A2985 RMK AO2
KGHW 180233Z AUTO 18008KT 10SM CLR 11/05 A2985 RMK AO2
KGHW 180214Z AUTO 18008KT 10SM CLR 11/05 A2985 RMK AO2
KGHW 180154Z AUTO 18008KT 10SM CLR 12/05 A2986 RMK AO2
KGHW 180134Z AUTO 18008KT 10SM CLR 12/05 A2986 RMK AO2
KGHW 180114Z AUTO 17006KT 10SM CLR 14/05 A2987 RMK AO2
KGHW 180053Z AUTO 15003KT 10SM CLR 13/05 A2987 RMK AO2
KGHW 180034Z AUTO 15005KT 10SM CLR 14/04 A2987 RMK AO2
KGHW 180013Z AUTO 17007KT 10SM CLR 15/05 A2987 RMK AO2
KGHW 172354Z AUTO 17007KT 10SM CLR 16/06 A2987 RMK AO2
KGHW 172334Z AUTO 17006KT 10SM CLR 17/06 A2987 RMK AO2
KGHW 172313Z AUTO 17005KT 10SM CLR 18/06 A2987 RMK AO2
KGHW 172254Z AUTO 20006KT 10SM CLR 20/05 A2987 RMK AO2